Terminal Aerodrome Forecast
Issued by NWS

Home | Current Version | Previous Version | Text Only | Print | Product List | Glossary On
Versions: 1 2 3 4 5 6 7 8 9 10 11 12 13
000
FTUS43 KEAX 311700
TAFMKC
TAF
KMKC 311727Z 3118/0118 15007KT 4SM -RA BR SCT012 OVC028
     FM312000 17010KT 4SM -RA BR OVC015
     FM010300 15007KT 4SM -RA BR OVC009
     FM010900 VRB04KT 3SM -RASN BR OVC008
     FM011500 34016G24KT 2SM -SN BR OVC006=

USA.gov is the U.S. government's official web portal to all federal, state and local government web resources and services.